Time;durP1;ratioP1;P1;durP2;ratioP2;P2;SDS_P1;SDS_P2;PMS_P1;PMS_P2;Temp;Humidity;BMP_temperature;BMP_pressure;BME280_temperature;BME280_humidity;BME280_pressure;Samples;Min_cycle;Max_cycle;Signal;HPM_P1;HPM_P2
2023/02/05 00:00:38;;;;;;;14.10;8.48;;;;;;;;;;5032897;28;20407;-74
2023/02/05 00:03:06;;;;;;;15.95;8.68;;;;;;;;;;5038710;28;20625;-75
2023/02/05 00:05:33;;;;;;;15.75;8.70;;;;;;;;;;5053625;28;20041;-74
2023/02/05 00:07:59;;;;;;;15.05;8.77;;;;;;;;;;5046638;28;20559;-74
2023/02/05 00:10:26;;;;;;;13.35;8.63;;;;;;;;;;5034701;28;20095;-74
2023/02/05 00:12:53;;;;;;;13.88;9.20;;;;;;;;;;5034196;28;20496;-73
2023/02/05 00:15:19;;;;;;;15.25;8.73;;;;;;;;;;5034676;28;20144;-75
2023/02/05 00:17:46;;;;;;;17.15;9.65;;;;;;;;;;5034485;28;20124;-75
2023/02/05 00:20:14;;;;;;;15.85;10.35;;;;;;;;;;5041833;28;20416;-74
2023/02/05 00:22:45;;;;;;;17.25;9.77;;;;;;;;;;5050467;28;20041;-74
2023/02/05 00:25:12;;;;;;;16.15;9.35;;;;;;;;;;5034793;28;20408;-74
2023/02/05 00:27:41;;;;;;;16.65;8.85;;;;;;;;;;5034231;28;20073;-74
2023/02/05 00:30:09;;;;;;;14.48;8.90;;;;;;;;;;5042353;28;20129;-74
2023/02/05 00:32:37;;;;;;;14.43;7.45;;;;;;;;;;5052280;28;20566;-74
2023/02/05 00:35:04;;;;;;;10.85;7.13;;;;;;;;;;5038847;28;20491;-74
2023/02/05 00:37:32;;;;;;;12.25;7.70;;;;;;;;;;5054439;28;20049;-75
2023/02/05 00:39:58;;;;;;;14.13;8.52;;;;;;;;;;5039780;28;20146;-75
2023/02/05 00:42:25;;;;;;;14.73;8.50;;;;;;;;;;5051355;28;20131;-76
2023/02/05 00:44:52;;;;;;;14.95;8.57;;;;;;;;;;5033694;28;20046;-76
2023/02/05 00:47:19;;;;;;;13.40;7.93;;;;;;;;;;5034042;28;20050;-75
2023/02/05 00:49:45;;;;;;;12.45;7.97;;;;;;;;;;5022562;28;20124;-74
2023/02/05 00:52:12;;;;;;;12.43;7.35;;;;;;;;;;5054233;28;20048;-75
2023/02/05 00:54:40;;;;;;;12.07;7.70;;;;;;;;;;5035905;28;20045;-75
2023/02/05 00:57:07;;;;;;;13.63;8.90;;;;;;;;;;5035402;28;20128;-75
2023/02/05 00:59:34;;;;;;;14.10;8.35;;;;;;;;;;5035821;28;20124;-76
2023/02/05 01:02:00;;;;;;;13.32;8.57;;;;;;;;;;5034963;28;20132;-76
2023/02/05 01:04:27;;;;;;;14.13;8.27;;;;;;;;;;5041591;28;20182;-76
2023/02/05 01:06:54;;;;;;;14.77;8.88;;;;;;;;;;5034866;28;20125;-75
2023/02/05 01:09:21;;;;;;;14.63;8.98;;;;;;;;;;5034057;28;20475;-76
2023/02/05 01:11:49;;;;;;;15.00;8.77;;;;;;;;;;5033882;28;20045;-76
2023/02/05 01:14:16;;;;;;;17.33;9.98;;;;;;;;;;5033308;28;20052;-77
2023/02/05 01:16:43;;;;;;;19.60;10.05;;;;;;;;;;5034753;28;20057;-77
2023/02/05 01:19:09;;;;;;;16.25;9.63;;;;;;;;;;5034195;28;20142;-77
2023/02/05 01:21:36;;;;;;;16.33;9.35;;;;;;;;;;5034547;28;20128;-76
2023/02/05 01:24:03;;;;;;;16.77;10.10;;;;;;;;;;5034326;28;20041;-76
2023/02/05 01:26:30;;;;;;;17.40;10.75;;;;;;;;;;5034836;28;20136;-75
2023/02/05 01:28:57;;;;;;;15.35;10.13;;;;;;;;;;5033862;28;20128;-75
2023/02/05 01:31:26;;;;;;;18.23;10.55;;;;;;;;;;5054340;28;20407;-76
2023/02/05 01:33:53;;;;;;;18.13;9.93;;;;;;;;;;5047147;28;20045;-77
2023/02/05 01:36:20;;;;;;;15.73;9.63;;;;;;;;;;5034042;28;20077;-77
2023/02/05 01:38:47;;;;;;;13.88;8.70;;;;;;;;;;5035569;28;20154;-75
2023/02/05 01:41:14;;;;;;;14.65;8.32;;;;;;;;;;5034895;28;20661;-74
2023/02/05 01:43:41;;;;;;;15.40;7.93;;;;;;;;;;5034204;28;20073;-76
2023/02/05 01:46:26;;;;;;;15.98;7.65;;;;;;;;;;5035111;28;20059;-74
2023/02/05 01:48:56;;;;;;;17.45;9.63;;;;;;;;;;5014840;28;20052;-74
2023/02/05 01:51:24;;;;;;;15.50;9.18;;;;;;;;;;5014960;28;20132;-74
2023/02/05 01:53:52;;;;;;;16.58;9.10;;;;;;;;;;5032086;28;20141;-75
2023/02/05 01:56:21;;;;;;;14.75;8.95;;;;;;;;;;5032733;28;20045;-76
2023/02/05 01:58:53;;;;;;;14.50;9.70;;;;;;;;;;5032053;28;20420;-76
2023/02/05 02:01:19;;;;;;;15.75;9.15;;;;;;;;;;5063483;22;20044;-51
2023/02/05 02:03:49;;;;;;;15.65;9.50;;;;;;;;;;5073425;28;20056;-49
2023/02/05 02:06:16;;;;;;;15.02;10.32;;;;;;;;;;5065942;28;20493;-50
2023/02/05 02:08:43;;;;;;;15.32;9.15;;;;;;;;;;5072120;28;20135;-51
2023/02/05 02:11:13;;;;;;;18.17;9.75;;;;;;;;;;5072502;28;20052;-49
2023/02/05 02:13:40;;;;;;;14.57;9.23;;;;;;;;;;5072331;28;20049;-53
2023/02/05 02:16:08;;;;;;;12.73;7.88;;;;;;;;;;5072103;28;20048;-50
2023/02/05 02:18:38;;;;;;;12.43;8.00;;;;;;;;;;5072328;28;20559;-50
2023/02/05 02:21:41;;;;;;;14.63;7.68;;;;;;;;;;5071838;28;20053;-50
2023/02/05 02:24:30;;;;;;;11.35;7.57;;;;;;;;;;5071657;28;20052;-49
2023/02/05 02:27:28;;;;;;;13.13;7.72;;;;;;;;;;5072321;28;20540;-51
2023/02/05 02:29:58;;;;;;;14.52;7.47;;;;;;;;;;5059433;28;20049;-49
2023/02/05 02:32:31;;;;;;;10.38;7.00;;;;;;;;;;5072005;28;20102;-52
2023/02/05 02:35:04;;;;;;;14.15;7.90;;;;;;;;;;5072126;28;20102;-51
2023/02/05 02:37:39;;;;;;;13.93;7.88;;;;;;;;;;5071821;28;20234;-49
2023/02/05 02:40:11;;;;;;;11.27;7.50;;;;;;;;;;5072122;28;20117;-50
2023/02/05 02:42:46;;;;;;;13.05;6.93;;;;;;;;;;5071672;28;20489;-50
2023/02/05 02:45:14;;;;;;;12.85;7.20;;;;;;;;;;5071984;28;20060;-51
2023/02/05 02:47:45;;;;;;;12.02;7.47;;;;;;;;;;5071766;28;20051;-51
2023/02/05 02:50:17;;;;;;;10.13;6.60;;;;;;;;;;5071779;28;20057;-50
2023/02/05 02:52:47;;;;;;;9.55;6.60;;;;;;;;;;5071577;28;20536;-52
2023/02/05 02:55:15;;;;;;;10.27;6.05;;;;;;;;;;5071724;28;20416;-49
2023/02/05 02:57:47;;;;;;;11.68;6.68;;;;;;;;;;5072284;28;20053;-49
2023/02/05 03:00:18;;;;;;;13.40;6.90;;;;;;;;;;5071715;28;20151;-52
2023/02/05 03:02:46;;;;;;;;;;;;;;;;;;5071815;28;20519;-50
2023/02/05 03:05:16;;;;;;;14.35;6.57;;;;;;;;;;5066645;28;19924;-50
2023/02/05 03:07:46;;;;;;;10.35;6.88;;;;;;;;;;5067837;28;20445;-50
2023/02/05 03:10:18;;;;;;;11.25;7.05;;;;;;;;;;5071806;28;20094;-50
2023/02/05 03:12:46;;;;;;;13.60;7.07;;;;;;;;;;5071126;28;20075;-51
2023/02/05 03:15:13;;;;;;;13.02;6.07;;;;;;;;;;5071547;28;20063;-49
2023/02/05 03:17:41;;;;;;;10.38;6.43;;;;;;;;;;5071443;28;20048;-51
2023/02/05 03:20:14;;;;;;;10.10;5.95;;;;;;;;;;5071669;28;20052;-48
2023/02/05 03:22:41;;;;;;;11.73;6.88;;;;;;;;;;5070591;28;20048;-50
2023/02/05 03:25:08;;;;;;;9.65;6.30;;;;;;;;;;5071413;28;20127;-49
2023/02/05 03:27:36;;;;;;;11.00;6.35;;;;;;;;;;5071456;28;20052;-51
2023/02/05 03:30:05;;;;;;;11.82;6.50;;;;;;;;;;5071456;28;20056;-50
2023/02/05 03:32:42;;;;;;;10.65;7.07;;;;;;;;;;5070968;28;20051;-49
2023/02/05 03:35:21;;;;;;;10.10;6.40;;;;;;;;;;5070850;28;20052;-49
2023/02/05 03:37:58;;;;;;;9.63;5.90;;;;;;;;;;5064006;28;20064;-50
2023/02/05 03:40:32;;;;;;;11.52;6.30;;;;;;;;;;5075232;28;20056;-52
2023/02/05 03:43:09;;;;;;;12.00;6.07;;;;;;;;;;5074651;28;20048;-50
2023/02/05 03:45:46;;;;;;;9.50;6.22;;;;;;;;;;5075183;28;20105;-51
2023/02/05 03:48:36;;;;;;;12.13;7.10;;;;;;;;;;5074783;28;20102;-51
2023/02/05 03:51:17;;;;;;;9.05;6.53;;;;;;;;;;5075224;28;20090;-51
2023/02/05 03:53:55;;;;;;;11.00;6.82;;;;;;;;;;5074443;28;20045;-49
2023/02/05 03:56:27;;;;;;;10.20;6.93;;;;;;;;;;5074911;28;20542;-52
2023/02/05 03:58:57;;;;;;;11.93;6.82;;;;;;;;;;5074704;28;20049;-50
2023/02/05 04:01:26;;;;;;;11.70;6.80;;;;;;;;;;5074965;28;20106;-53
2023/02/05 04:03:52;;;;;;;11.35;7.20;;;;;;;;;;5073818;28;20106;-49
2023/02/05 04:06:19;;;;;;;13.75;7.78;;;;;;;;;;5060968;28;20746;-50
2023/02/05 04:08:46;;;;;;;9.80;6.10;;;;;;;;;;5066467;28;20098;-51
2023/02/05 04:11:13;;;;;;;12.07;7.38;;;;;;;;;;5074594;28;20052;-49
2023/02/05 04:13:40;;;;;;;12.43;6.70;;;;;;;;;;5073982;28;20056;-52
2023/02/05 04:16:07;;;;;;;12.85;7.07;;;;;;;;;;5074696;28;20489;-51
2023/02/05 04:18:35;;;;;;;12.52;7.00;;;;;;;;;;5073925;28;20118;-52
2023/02/05 04:21:02;;;;;;;11.80;6.50;;;;;;;;;;5074400;28;20495;-50
2023/02/05 04:23:28;;;;;;;12.35;7.40;;;;;;;;;;5073642;28;20052;-49
2023/02/05 04:25:56;;;;;;;11.30;6.57;;;;;;;;;;5074236;28;20049;-49
2023/02/05 04:28:22;;;;;;;12.00;7.70;;;;;;;;;;5074082;28;20040;-48
2023/02/05 04:30:49;;;;;;;10.35;6.88;;;;;;;;;;5074531;28;20045;-52
2023/02/05 04:33:16;;;;;;;11.25;7.15;;;;;;;;;;5073713;28;20052;-49
2023/02/05 04:35:44;;;;;;;12.27;7.18;;;;;;;;;;5074136;28;20052;-53
2023/02/05 04:38:14;;;;;;;11.88;7.15;;;;;;;;;;5074387;28;20109;-49
2023/02/05 04:40:41;;;;;;;12.23;7.95;;;;;;;;;;5074560;28;20060;-49
2023/02/05 04:43:07;;;;;;;17.35;8.95;;;;;;;;;;5074016;28;20044;-53
2023/02/05 04:45:35;;;;;;;13.32;8.05;;;;;;;;;;5073675;28;20489;-50
2023/02/05 04:48:05;;;;;;;12.63;7.32;;;;;;;;;;5074108;28;20125;-49
2023/02/05 04:50:32;;;;;;;13.05;7.85;;;;;;;;;;5074179;28;20122;-49
2023/02/05 04:53:01;;;;;;;11.68;7.80;;;;;;;;;;5073793;28;20048;-50
2023/02/05 04:55:28;;;;;;;11.65;7.22;;;;;;;;;;5073256;28;20440;-49
2023/02/05 04:57:55;;;;;;;13.77;7.90;;;;;;;;;;5073684;28;20044;-50
2023/02/05 05:00:22;;;;;;;12.05;7.25;;;;;;;;;;5073524;28;20053;-49
2023/02/05 05:02:48;;;;;;;13.98;7.53;;;;;;;;;;5073265;28;20045;-49
2023/02/05 05:05:15;;;;;;;11.90;7.28;;;;;;;;;;5068139;28;20045;-51
2023/02/05 05:07:42;;;;;;;12.73;7.78;;;;;;;;;;5053543;28;20501;-52
2023/02/05 05:10:12;;;;;;;12.50;8.13;;;;;;;;;;5069101;28;20513;-49
2023/02/05 05:12:38;;;;;;;14.25;7.70;;;;;;;;;;5073586;28;20053;-50
2023/02/05 05:15:07;;;;;;;12.98;8.63;;;;;;;;;;5073336;28;20052;-49
2023/02/05 05:17:34;;;;;;;15.48;7.95;;;;;;;;;;5073346;28;20094;-49
2023/02/05 05:20:01;;;;;;;13.65;8.52;;;;;;;;;;5073212;28;20489;-50
2023/02/05 05:22:28;;;;;;;13.10;7.75;;;;;;;;;;5072727;28;20178;-51
2023/02/05 05:24:55;;;;;;;12.07;7.30;;;;;;;;;;5073422;28;20118;-49
2023/02/05 05:27:23;;;;;;;16.17;7.97;;;;;;;;;;5073484;28;20102;-49
2023/02/05 05:29:50;;;;;;;14.25;7.97;;;;;;;;;;5073297;28;20421;-53
2023/02/05 05:32:17;;;;;;;13.98;7.90;;;;;;;;;;5073231;28;20075;-49
2023/02/05 05:34:43;;;;;;;13.32;7.82;;;;;;;;;;5072781;28;20442;-50
2023/02/05 05:37:10;;;;;;;16.90;9.43;;;;;;;;;;5072487;28;20056;-50
2023/02/05 05:45:08;;;;;;;16.55;8.35;;;;;;;;;;5072414;28;20133;-53
2023/02/05 05:47:35;;;;;;;13.80;8.50;;;;;;;;;;5072507;28;20053;-48
2023/02/05 05:50:01;;;;;;;13.25;7.82;;;;;;;;;;5072255;28;20055;-49
2023/02/05 05:52:28;;;;;;;13.25;8.85;;;;;;;;;;5072585;28;20060;-52
2023/02/05 05:54:55;;;;;;;13.45;8.02;;;;;;;;;;5072054;28;20102;-49
2023/02/05 05:57:23;;;;;;;11.15;7.32;;;;;;;;;;5072701;28;20048;-49
2023/02/05 05:59:50;;;;;;;12.60;7.60;;;;;;;;;;5072268;28;20052;-51
2023/02/05 06:02:17;;;;;;;13.05;7.45;;;;;;;;;;5071830;28;20520;-49
2023/02/05 06:04:44;;;;;;;11.48;8.05;;;;;;;;;;5071360;28;20673;-50
2023/02/05 06:07:11;;;;;;;14.18;7.85;;;;;;;;;;5072338;28;20136;-49
2023/02/05 06:09:38;;;;;;;12.75;7.43;;;;;;;;;;5058341;28;20057;-50
2023/02/05 06:12:05;;;;;;;13.38;8.10;;;;;;;;;;5058231;28;20057;-50
2023/02/05 06:14:33;;;;;;;13.77;7.88;;;;;;;;;;5072006;28;20060;-52
2023/02/05 06:17:00;;;;;;;16.63;8.07;;;;;;;;;;5072197;28;20044;-50
2023/02/05 06:19:27;;;;;;;15.07;8.63;;;;;;;;;;5068647;28;20045;-51
2023/02/05 06:21:54;;;;;;;12.10;7.35;;;;;;;;;;5064653;28;20052;-50
2023/02/05 06:24:20;;;;;;;14.95;7.70;;;;;;;;;;5071989;28;20048;-51
2023/02/05 06:26:47;;;;;;;14.95;8.27;;;;;;;;;;5072071;28;20447;-49
2023/02/05 06:29:14;;;;;;;15.65;8.93;;;;;;;;;;5072449;28;20114;-48
2023/02/05 06:31:42;;;;;;;13.25;7.97;;;;;;;;;;5072204;28;20472;-49
2023/02/05 06:34:09;;;;;;;14.25;7.90;;;;;;;;;;5055412;28;20060;-50
2023/02/05 06:36:36;;;;;;;14.93;8.00;;;;;;;;;;5072354;28;20044;-50
2023/02/05 06:39:02;;;;;;;15.00;7.93;;;;;;;;;;5072743;28;20481;-50
2023/02/05 06:41:29;;;;;;;12.15;8.02;;;;;;;;;;5072340;28;20056;-49
2023/02/05 06:43:56;;;;;;;13.25;8.13;;;;;;;;;;5072157;28;20049;-51
2023/02/05 06:46:23;;;;;;;13.07;7.53;;;;;;;;;;5071798;28;20040;-48
2023/02/05 06:48:51;;;;;;;13.27;7.35;;;;;;;;;;5072192;28;20045;-51
2023/02/05 06:51:18;;;;;;;13.48;8.35;;;;;;;;;;5072495;28;20052;-51
2023/02/05 06:53:44;;;;;;;14.38;8.20;;;;;;;;;;5072367;28;20048;-51
2023/02/05 06:56:11;;;;;;;13.10;6.82;;;;;;;;;;5071927;28;20078;-50
2023/02/05 06:58:38;;;;;;;11.75;7.13;;;;;;;;;;5072288;28;20045;-50
2023/02/05 07:01:05;;;;;;;12.85;7.43;;;;;;;;;;5072088;28;20055;-50
2023/02/05 07:03:32;;;;;;;12.75;7.47;;;;;;;;;;5072377;28;20049;-50
2023/02/05 07:06:03;;;;;;;13.55;7.55;;;;;;;;;;5068661;28;20125;-49
2023/02/05 07:08:31;;;;;;;14.00;7.57;;;;;;;;;;5052088;28;20045;-52
2023/02/05 07:10:58;;;;;;;13.65;7.85;;;;;;;;;;5056414;28;20127;-51
2023/02/05 07:13:24;;;;;;;11.50;7.07;;;;;;;;;;5074614;28;20064;-51
2023/02/05 07:15:51;;;;;;;15.82;8.15;;;;;;;;;;5075678;28;20060;-50
2023/02/05 07:18:18;;;;;;;13.85;8.82;;;;;;;;;;5075286;28;20044;-50
2023/02/05 07:20:45;;;;;;;17.05;10.27;;;;;;;;;;5075544;28;20053;-50
2023/02/05 07:23:13;;;;;;;14.75;10.02;;;;;;;;;;5074975;28;20052;-50
2023/02/05 07:25:40;;;;;;;16.17;10.98;;;;;;;;;;5075462;28;20056;-50
2023/02/05 07:28:08;;;;;;;18.63;11.10;;;;;;;;;;5074908;28;20238;-53
2023/02/05 07:30:35;;;;;;;16.30;10.43;;;;;;;;;;5075976;28;20102;-51
2023/02/05 07:33:02;;;;;;;18.15;10.43;;;;;;;;;;5075121;28;20056;-53
2023/02/05 07:35:29;;;;;;;19.40;10.50;;;;;;;;;;5075550;28;20048;-51
2023/02/05 07:37:56;;;;;;;19.38;11.05;;;;;;;;;;5074916;28;20052;-50
2023/02/05 07:40:24;;;;;;;17.38;10.20;;;;;;;;;;5075320;28;20049;-52
2023/02/05 07:42:51;;;;;;;16.80;10.68;;;;;;;;;;5074741;28;20118;-49
2023/02/05 07:45:18;;;;;;;16.38;10.73;;;;;;;;;;5075352;28;20045;-52
2023/02/05 07:47:45;;;;;;;21.10;12.73;;;;;;;;;;5074585;28;20048;-49
2023/02/05 07:50:12;;;;;;;18.50;11.90;;;;;;;;;;5054758;28;20053;-49
2023/02/05 07:52:38;;;;;;;18.95;12.85;;;;;;;;;;5067605;28;20489;-49
2023/02/05 07:55:06;;;;;;;21.63;12.98;;;;;;;;;;5074539;28;20052;-49
2023/02/05 07:57:34;;;;;;;22.48;12.95;;;;;;;;;;5074784;28;20086;-52
2023/02/05 08:00:01;;;;;;;19.75;12.38;;;;;;;;;;5074883;28;20094;-49
2023/02/05 08:02:28;;;;;;;18.15;12.75;;;;;;;;;;5091495;22;20048;-74
2023/02/05 08:04:54;;;;;;;21.20;13.10;;;;;;;;;;5033688;28;20052;-75
2023/02/05 08:07:21;;;;;;;22.77;13.00;;;;;;;;;;5039220;28;20128;-75
2023/02/05 08:09:47;;;;;;;21.92;14.13;;;;;;;;;;5044809;28;20050;-76
2023/02/05 08:12:14;;;;;;;25.30;14.18;;;;;;;;;;5046893;28;20603;-75
2023/02/05 08:14:42;;;;;;;20.73;13.73;;;;;;;;;;5053611;28;20065;-75
2023/02/05 08:17:09;;;;;;;22.48;13.30;;;;;;;;;;5054516;28;20046;-75
2023/02/05 08:19:36;;;;;;;23.52;14.43;;;;;;;;;;5054354;28;20041;-75
2023/02/05 08:22:02;;;;;;;21.58;14.35;;;;;;;;;;5050898;28;20069;-75
2023/02/05 08:24:31;;;;;;;24.10;14.20;;;;;;;;;;5041931;28;20048;-76
2023/02/05 08:26:57;;;;;;;23.02;14.38;;;;;;;;;;5040318;28;20045;-75
2023/02/05 08:29:24;;;;;;;23.63;14.48;;;;;;;;;;5037764;28;20076;-76
2023/02/05 08:31:52;;;;;;;22.63;14.80;;;;;;;;;;5035416;28;20564;-75
2023/02/05 08:34:19;;;;;;;22.85;14.27;;;;;;;;;;5037160;28;20130;-76
2023/02/05 08:36:45;;;;;;;20.38;13.60;;;;;;;;;;5040179;28;20539;-76
2023/02/05 08:39:12;;;;;;;20.80;12.55;;;;;;;;;;5040111;28;20539;-76
2023/02/05 08:41:39;;;;;;;17.55;11.32;;;;;;;;;;5040793;28;20053;-76
2023/02/05 08:44:05;;;;;;;15.32;10.73;;;;;;;;;;5039252;28;20046;-76
2023/02/05 08:46:32;;;;;;;16.27;10.63;;;;;;;;;;5042555;28;20191;-76
2023/02/05 08:49:00;;;;;;;14.68;10.00;;;;;;;;;;5040052;28;20077;-74
2023/02/05 08:51:27;;;;;;;15.32;9.05;;;;;;;;;;5030116;28;20560;-74
2023/02/05 08:53:55;;;;;;;11.85;7.75;;;;;;;;;;5040714;28;20136;-74
2023/02/05 08:56:22;;;;;;;18.80;9.75;;;;;;;;;;5036889;28;20046;-74
2023/02/05 08:58:48;;;;;;;14.73;8.60;;;;;;;;;;5034333;28;20049;-75
2023/02/05 09:01:16;;;;;;;16.58;8.80;;;;;;;;;;5026252;28;20053;-76
2023/02/05 09:03:44;;;;;;;14.98;8.80;;;;;;;;;;5027097;28;20046;-76
2023/02/05 09:06:14;;;;;;;14.68;8.32;;;;;;;;;;5021852;28;20042;-75
2023/02/05 09:08:41;;;;;;;12.55;7.50;;;;;;;;;;5023054;28;20043;-76
2023/02/05 09:11:08;;;;;;;14.52;8.43;;;;;;;;;;5025726;28;20721;-75
2023/02/05 09:13:35;;;;;;;17.15;8.95;;;;;;;;;;5021411;28;20109;-75
2023/02/05 09:16:02;;;;;;;15.70;9.20;;;;;;;;;;5022880;28;20485;-76
2023/02/05 09:18:28;;;;;;;13.75;7.57;;;;;;;;;;5023694;28;20133;-76
2023/02/05 09:20:55;;;;;;;14.07;8.23;;;;;;;;;;5023924;28;20096;-76
2023/02/05 09:23:23;;;;;;;16.17;7.60;;;;;;;;;;5028535;28;20042;-74
2023/02/05 09:25:50;;;;;;;12.20;7.63;;;;;;;;;;5022089;28;20050;-74
2023/02/05 09:28:17;;;;;;;10.75;6.15;;;;;;;;;;5022652;28;20041;-75
2023/02/05 09:30:45;;;;;;;12.73;7.18;;;;;;;;;;5026507;28;20117;-74
2023/02/05 09:33:17;;;;;;;10.90;6.70;;;;;;;;;;5027494;28;20052;-75
2023/02/05 09:35:44;;;;;;;14.45;7.45;;;;;;;;;;5022632;28;20049;-75
2023/02/05 09:38:13;;;;;;;13.15;7.38;;;;;;;;;;5024712;28;20061;-76
2023/02/05 09:40:53;;;;;;;14.07;7.80;;;;;;;;;;5027195;28;20038;-75
2023/02/05 09:43:33;;;;;;;11.73;7.22;;;;;;;;;;5031471;28;20042;-75
2023/02/05 09:46:04;;;;;;;12.50;7.10;;;;;;;;;;5031150;28;20072;-74
2023/02/05 09:48:52;;;;;;;15.13;7.68;;;;;;;;;;5040904;28;20041;-76
2023/02/05 09:51:24;;;;;;;14.18;7.88;;;;;;;;;;5042271;28;20077;-77
2023/02/05 09:53:55;;;;;;;13.30;7.60;;;;;;;;;;5039926;28;20061;-75
2023/02/05 09:56:25;;;;;;;12.77;7.60;;;;;;;;;;5037221;28;20047;-76
2023/02/05 09:58:54;;;;;;;12.07;7.30;;;;;;;;;;5036829;28;20091;-78
2023/02/05 10:01:24;;;;;;;14.20;8.45;;;;;;;;;;5032257;28;20132;-74
2023/02/05 10:03:55;;;;;;;13.70;7.57;;;;;;;;;;5028490;28;20586;-75
2023/02/05 10:06:55;;;;;;;14.27;7.97;;;;;;;;;;5031375;28;20053;-74
2023/02/05 10:09:44;;;;;;;16.45;7.93;;;;;;;;;;5032239;28;20042;-73
2023/02/05 10:12:22;;;;;;;11.65;5.97;;;;;;;;;;5032206;28;20565;-75
2023/02/05 10:15:00;;;;;;;11.23;5.85;;;;;;;;;;5032893;28;20128;-74
2023/02/05 10:17:43;;;;;;;14.25;6.03;;;;;;;;;;5038548;28;20049;-76
2023/02/05 10:20:32;;;;;;;11.25;6.30;;;;;;;;;;5040418;28;20049;-74
2023/02/05 10:23:13;;;;;;;13.02;6.40;;;;;;;;;;5044137;28;20088;-78
2023/02/05 10:26:01;;;;;;;11.60;5.70;;;;;;;;;;5044444;28;20124;-81
2023/02/05 10:29:03;;;;;;;9.52;5.25;;;;;;;;;;5018769;28;20568;-79
2023/02/05 10:31:42;;;;;;;10.68;5.32;;;;;;;;;;5020096;28;20072;-76
2023/02/05 10:34:23;;;;;;;7.95;5.10;;;;;;;;;;5040958;28;20147;-74
2023/02/05 10:36:51;;;;;;;;;;;;;;;;;;5035582;28;20473;-74
2023/02/05 10:39:21;;;;;;;11.50;4.88;;;;;;;;;;5028002;28;19968;-74
2023/02/05 10:41:53;;;;;;;12.47;5.67;;;;;;;;;;5033663;28;20045;-75
2023/02/05 10:44:27;;;;;;;16.35;8.60;;;;;;;;;;5033254;28;20041;-76
2023/02/05 10:47:02;;;;;;;12.05;5.43;;;;;;;;;;5034947;28;20072;-76
2023/02/05 10:49:40;;;;;;;10.45;5.22;;;;;;;;;;5036807;28;20054;-77
2023/02/05 10:52:11;;;;;;;14.65;5.93;;;;;;;;;;5026760;28;20065;-76
2023/02/05 10:54:39;;;;;;;8.50;4.13;;;;;;;;;;5039944;28;20080;-77
2023/02/05 10:57:12;;;;;;;8.95;4.78;;;;;;;;;;5045019;28;20124;-76
2023/02/05 10:59:49;;;;;;;13.30;4.82;;;;;;;;;;5044288;28;20053;-74
2023/02/05 11:02:17;;;;;;;8.13;4.10;;;;;;;;;;5026472;28;20110;-76
2023/02/05 11:04:47;;;;;;;10.38;4.35;;;;;;;;;;5034160;28;20041;-76
2023/02/05 11:07:25;;;;;;;8.55;5.05;;;;;;;;;;5049014;28;20109;-76
2023/02/05 11:09:52;;;;;;;10.25;3.92;;;;;;;;;;5048118;28;20550;-76
2023/02/05 11:12:26;;;;;;;11.75;6.45;;;;;;;;;;5042292;28;20100;-77
2023/02/05 11:14:57;;;;;;;12.38;4.40;;;;;;;;;;5039716;28;20136;-77
2023/02/05 11:17:26;;;;;;;;;;;;;;;;;;5037770;28;20056;-78
2023/02/05 11:19:55;;;;;;;11.45;4.57;;;;;;;;;;5035833;28;19953;-77
2023/02/05 11:22:29;;;;;;;9.25;4.50;;;;;;;;;;5033589;28;20120;-78
2023/02/05 11:25:07;;;;;;;8.40;4.35;;;;;;;;;;5036697;28;20132;-77
2023/02/05 11:27:35;;;;;;;11.15;4.57;;;;;;;;;;5035150;28;20045;-77
2023/02/05 11:30:19;;;;;;;9.02;3.63;;;;;;;;;;5043017;28;20478;-77
2023/02/05 11:32:47;;;;;;;7.85;3.78;;;;;;;;;;5047149;28;20092;-77
2023/02/05 11:35:22;;;;;;;8.20;4.65;;;;;;;;;;5042384;28;20328;-77
2023/02/05 11:37:56;;;;;;;11.32;5.20;;;;;;;;;;5045176;28;20069;-77
2023/02/05 11:40:26;;;;;;;11.45;5.30;;;;;;;;;;5045746;28;20055;-75
2023/02/05 11:43:00;;;;;;;9.82;5.72;;;;;;;;;;5040408;28;20050;-76
2023/02/05 11:45:28;;;;;;;11.88;5.20;;;;;;;;;;5044003;28;20045;-76
2023/02/05 11:47:57;;;;;;;10.65;5.68;;;;;;;;;;5044681;28;20065;-77
2023/02/05 11:50:26;;;;;;;10.65;5.63;;;;;;;;;;5043370;28;20064;-76
2023/02/05 11:52:53;;;;;;;10.70;5.53;;;;;;;;;;5042784;28;20050;-77
2023/02/05 11:55:30;;;;;;;11.90;4.80;;;;;;;;;;5033769;28;20054;-76
2023/02/05 11:57:59;;;;;;;11.55;6.35;;;;;;;;;;5031113;28;20050;-76
2023/02/05 12:00:27;;;;;;;11.32;4.07;;;;;;;;;;5033576;28;20065;-76
2023/02/05 12:03:17;;;;;;;10.20;3.88;;;;;;;;;;5035664;28;20120;-75
2023/02/05 12:05:49;;;;;;;12.40;4.40;;;;;;;;;;5030435;28;20080;-77
2023/02/05 12:08:30;;;;;;;8.50;4.00;;;;;;;;;;5038364;28;20062;-77
2023/02/05 12:11:03;;;;;;;;;;;;;;;;;;5041338;28;20045;-76
2023/02/05 12:13:45;;;;;;;8.07;4.22;;;;;;;;;;5024586;28;19929;-75
2023/02/05 12:16:24;;;;;;;8.93;4.03;;;;;;;;;;5036173;28;20080;-76
2023/02/05 12:19:03;;;;;;;9.93;4.00;;;;;;;;;;5031488;28;20111;-75
2023/02/05 12:21:39;;;;;;;9.73;4.70;;;;;;;;;;5013423;28;20081;-76
2023/02/05 12:24:22;;;;;;;11.48;5.82;;;;;;;;;;5033271;28;20512;-77
2023/02/05 12:26:52;;;;;;;9.07;4.30;;;;;;;;;;5032797;28;20081;-75
2023/02/05 12:29:45;;;;;;;9.35;4.32;;;;;;;;;;5022272;28;20042;-75
2023/02/05 12:32:27;;;;;;;8.40;4.18;;;;;;;;;;5015912;28;20503;-75
2023/02/05 12:35:13;;;;;;;9.82;4.22;;;;;;;;;;5032657;28;20137;-76
2023/02/05 12:37:48;;;;;;;8.43;4.70;;;;;;;;;;5032508;28;20132;-77
2023/02/05 12:40:30;;;;;;;10.98;5.20;;;;;;;;;;5032776;28;20124;-76
2023/02/05 12:43:03;;;;;;;9.85;5.03;;;;;;;;;;5032360;28;20132;-78
2023/02/05 12:45:40;;;;;;;15.18;4.72;;;;;;;;;;5027351;28;20132;-75
2023/02/05 12:48:38;;;;;;;11.25;5.10;;;;;;;;;;5026643;28;20133;-76
2023/02/05 12:51:20;;;;;;;11.32;5.78;;;;;;;;;;5022586;28;20121;-75
2023/02/05 12:54:01;;;;;;;10.73;4.68;;;;;;;;;;5012218;28;20068;-76
2023/02/05 12:56:43;;;;;;;11.65;5.70;;;;;;;;;;5017479;28;20129;-74
2023/02/05 12:59:14;;;;;;;10.82;5.57;;;;;;;;;;5021418;28;20054;-75
2023/02/05 13:01:47;;;;;;;10.70;5.53;;;;;;;;;;5028053;28;20077;-75
2023/02/05 13:04:24;;;;;;;12.90;4.82;;;;;;;;;;5033393;28;20052;-76
2023/02/05 13:06:57;;;;;;;13.85;6.00;;;;;;;;;;5022497;28;20129;-78
2023/02/05 13:09:30;;;;;;;10.75;4.97;;;;;;;;;;5035412;28;20049;-78
2023/02/05 13:12:00;;;;;;;15.55;4.35;;;;;;;;;;5034683;28;20079;-78
2023/02/05 13:14:34;;;;;;;10.80;5.13;;;;;;;;;;5025959;28;20069;-76
2023/02/05 13:17:05;;;;;;;12.65;4.65;;;;;;;;;;5032211;28;20049;-76
2023/02/05 13:19:33;;;;;;;;;;;;;;;;;;5021664;28;20714;-77
2023/02/05 13:30:38;;;;;;;13.18;5.00;;;;;;;;;;5029336;28;20102;-78
2023/02/05 13:33:07;;;;;;;13.05;5.28;;;;;;;;;;5030883;28;20091;-77
2023/02/05 13:35:41;;;;;;;14.70;6.15;;;;;;;;;;5017085;28;20056;-77
2023/02/05 13:38:37;;;;;;;15.30;5.82;;;;;;;;;;5020630;28;20454;-77
2023/02/05 13:41:34;;;;;;;17.65;5.95;;;;;;;;;;5029553;28;20646;-79
2023/02/05 13:44:16;;;;;;;13.45;6.10;;;;;;;;;;5033349;28;20125;-77
2023/02/05 13:46:58;;;;;;;14.25;6.07;;;;;;;;;;5020166;28;20106;-76
2023/02/05 13:49:39;;;;;;;11.98;6.25;;;;;;;;;;5031210;28;20045;-76
2023/02/05 13:52:19;;;;;;;15.57;6.50;;;;;;;;;;5014275;28;20089;-77
2023/02/05 13:55:23;;;;;;;14.82;6.18;;;;;;;;;;5015205;28;20134;-77
2023/02/05 13:58:13;;;;;;;12.50;6.40;;;;;;;;;;5033584;28;20129;-77
2023/02/05 14:00:43;;;;;;;12.90;6.15;;;;;;;;;;5026380;28;20045;-77
2023/02/05 14:03:25;;;;;;;12.02;6.55;;;;;;;;;;5028780;28;20651;-77
2023/02/05 14:05:52;;;;;;;12.43;6.10;;;;;;;;;;5033661;28;20077;-77
2023/02/05 14:08:22;;;;;;;14.43;7.18;;;;;;;;;;5038286;28;20047;-77
2023/02/05 14:10:57;;;;;;;13.57;7.72;;;;;;;;;;5034602;28;20045;-77
2023/02/05 14:13:30;;;;;;;13.18;6.95;;;;;;;;;;5031947;28;20087;-75
2023/02/05 14:15:57;;;;;;;17.42;7.55;;;;;;;;;;5033096;28;20053;-76
2023/02/05 14:18:48;;;;;;;13.60;6.90;;;;;;;;;;5032129;28;20390;-77
2023/02/05 14:21:49;;;;;;;14.15;7.50;;;;;;;;;;5033276;22;20442;-77
2023/02/05 14:24:28;;;;;;;11.98;6.75;;;;;;;;;;5030957;28;20104;-77
2023/02/05 14:26:56;;;;;;;13.80;7.45;;;;;;;;;;5030367;28;20137;-78
2023/02/05 14:29:42;;;;;;;13.60;6.35;;;;;;;;;;5037512;28;20041;-78
2023/02/05 14:32:10;;;;;;;12.10;5.97;;;;;;;;;;5050018;28;20126;-78
2023/02/05 14:34:59;;;;;;;16.02;6.82;;;;;;;;;;5041400;28;20038;-80
2023/02/05 14:37:39;;;;;;;14.75;6.95;;;;;;;;;;5041280;28;20179;-83
2023/02/05 14:40:24;;;;;;;17.52;7.15;;;;;;;;;;5046604;28;20081;-78
2023/02/05 14:42:55;;;;;;;15.88;6.55;;;;;;;;;;5052929;28;20033;-78
2023/02/05 14:45:27;;;;;;;16.67;7.30;;;;;;;;;;5070208;28;20037;-80
2023/02/05 14:47:55;;;;;;;14.95;7.00;;;;;;;;;;5042212;28;20046;-79
2023/02/05 14:50:26;;;;;;;12.90;6.75;;;;;;;;;;5035296;28;20045;-79
2023/02/05 14:52:56;;;;;;;15.52;6.75;;;;;;;;;;5030150;28;20056;-79
2023/02/05 14:55:28;;;;;;;20.08;7.63;;;;;;;;;;5047419;28;20551;-79
2023/02/05 14:57:59;;;;;;;20.23;8.02;;;;;;;;;;5030541;28;20500;-78
2023/02/05 15:00:31;;;;;;;;;;;;;;;;;;5048622;28;20199;-78
2023/02/05 15:03:23;;;;;;;16.17;6.40;;;;;;;;;;5050389;28;19924;-79
2023/02/05 15:05:55;;;;;;;15.65;7.22;;;;;;;;;;5037856;28;20137;-79
2023/02/05 15:08:35;;;;;;;15.75;6.95;;;;;;;;;;5030664;28;20041;-79